createdAt,value
2023-04-02T00:01:27.954Z,8.27
2023-04-02T00:04:16.248Z,8.28
2023-04-02T00:06:47.534Z,8.30
2023-04-02T00:09:32.014Z,8.22
2023-04-02T00:12:00.418Z,8.24
2023-04-02T00:14:31.518Z,8.24
2023-04-02T00:17:01.377Z,8.28
2023-04-02T00:19:32.932Z,8.29
2023-04-02T00:22:01.615Z,8.31
2023-04-02T00:24:29.238Z,8.29
2023-04-02T00:26:56.976Z,8.28
2023-04-02T00:29:24.713Z,8.22
2023-04-02T00:31:55.384Z,8.17
2023-04-02T00:34:25.397Z,8.17
2023-04-02T00:36:54.380Z,8.15
2023-04-02T00:39:24.119Z,8.20
2023-04-02T00:42:05.176Z,8.22
2023-04-02T00:44:38.089Z,8.18
2023-04-02T00:47:14.943Z,8.14
2023-04-02T00:49:42.830Z,8.10
2023-04-02T00:52:13.261Z,8.12
2023-04-02T00:54:43.898Z,8.03
2023-04-02T00:57:17.844Z,7.93
2023-04-02T00:59:52.442Z,7.89
2023-04-02T01:02:28.120Z,7.86
2023-04-02T01:04:57.361Z,7.84
2023-04-02T01:07:51.853Z,7.83
2023-04-02T01:10:34.001Z,7.81
2023-04-02T01:13:09.814Z,7.83
2023-04-02T01:15:41.398Z,7.87
2023-04-02T01:18:33.191Z,7.87
2023-04-02T01:21:28.213Z,7.88
2023-04-02T01:24:02.549Z,7.87
2023-04-02T01:26:48.090Z,7.85
2023-04-02T01:29:18.711Z,7.79
2023-04-02T01:31:47.673Z,7.70
2023-04-02T01:34:17.234Z,7.66
2023-04-02T01:36:53.147Z,7.62
2023-04-02T01:39:31.130Z,7.62
2023-04-02T01:42:04.559Z,7.55
2023-04-02T01:44:38.851Z,7.55
2023-04-02T01:47:08.724Z,7.59
2023-04-02T01:49:36.452Z,7.55
2023-04-02T01:52:04.119Z,7.50
2023-04-02T01:54:33.234Z,7.50
2023-04-02T01:57:01.091Z,7.47
2023-04-02T01:59:29.486Z,7.46
2023-04-02T02:02:02.710Z,7.45
2023-04-02T02:04:30.658Z,7.46
2023-04-02T02:07:00.724Z,7.49
2023-04-02T02:09:30.301Z,7.44
2023-04-02T02:11:58.527Z,7.40
2023-04-02T02:14:27.402Z,7.33
2023-04-02T02:16:56.667Z,7.29
2023-04-02T02:19:29.299Z,7.24
2023-04-02T02:22:09.117Z,7.20
2023-04-02T02:24:37.462Z,7.17
2023-04-02T02:27:29.344Z,7.13
2023-04-02T02:29:59.648Z,7.11
2023-04-02T02:32:30.905Z,7.10
2023-04-02T02:35:05.335Z,7.12
2023-04-02T02:37:36.759Z,7.18
2023-04-02T02:40:08.546Z,7.21
2023-04-02T02:42:38.084Z,7.28
2023-04-02T02:45:08.124Z,7.23
2023-04-02T02:47:37.527Z,7.30
2023-04-02T02:50:10.322Z,7.35
2023-04-02T02:52:39.981Z,7.30
2023-04-02T02:55:09.995Z,7.18
2023-04-02T02:57:41.002Z,7.20
2023-04-02T03:00:13.083Z,7.06
2023-04-02T03:02:43.336Z,7.09
2023-04-02T03:05:17.754Z,7.04
2023-04-02T03:07:45.639Z,6.99
2023-04-02T03:10:17.531Z,6.86
2023-04-02T03:12:48.016Z,6.77
2023-04-02T03:15:21.384Z,6.73
2023-04-02T03:17:52.849Z,6.72
2023-04-02T03:20:27.159Z,6.75
2023-04-02T03:22:58.876Z,6.80
2023-04-02T03:25:33.105Z,6.87
2023-04-02T03:28:03.658Z,6.90
2023-04-02T03:30:39.452Z,6.89
2023-04-02T03:33:12.289Z,6.84
2023-04-02T03:35:44.846Z,6.78
2023-04-02T03:38:16.395Z,6.68
2023-04-02T03:40:46.006Z,6.73
2023-04-02T03:43:17.957Z,6.69
2023-04-02T03:45:49.416Z,6.62
2023-04-02T03:48:19.670Z,6.55
2023-04-02T03:50:52.203Z,6.47
2023-04-02T03:53:20.008Z,6.42
2023-04-02T03:55:47.936Z,6.39
2023-04-02T03:58:19.999Z,6.43
2023-04-02T04:00:50.842Z,6.33
2023-04-02T04:03:21.466Z,6.34
2023-04-02T04:05:52.906Z,6.32
2023-04-02T04:08:23.866Z,6.35
2023-04-02T04:10:53.115Z,6.34
2023-04-02T04:13:24.482Z,6.30
2023-04-02T04:15:56.300Z,6.32
2023-04-02T04:18:34.905Z,6.31
2023-04-02T04:21:07.602Z,6.28
2023-04-02T04:23:37.884Z,6.24
2023-04-02T04:26:10.613Z,6.18
2023-04-02T04:28:43.746Z,6.07
2023-04-02T04:31:20.962Z,6.20
2023-04-02T04:33:54.833Z,6.19
2023-04-02T04:36:28.581Z,6.13
2023-04-02T04:38:59.337Z,6.11
2023-04-02T04:41:30.085Z,6.10
2023-04-02T04:44:02.308Z,6.07
2023-04-02T04:46:32.711Z,6.05
2023-04-02T04:49:03.987Z,6.07
2023-04-02T04:51:36.602Z,5.99
2023-04-02T04:54:04.360Z,6.03
2023-04-02T04:56:32.957Z,6.00
2023-04-02T04:59:05.433Z,6.00
2023-04-02T05:01:38.518Z,6.02
2023-04-02T05:04:13.061Z,6.01
2023-04-02T05:06:44.573Z,5.98
2023-04-02T05:09:18.879Z,5.99
2023-04-02T05:11:48.459Z,6.00
2023-04-02T05:14:22.748Z,5.92
2023-04-02T05:16:53.382Z,5.89
2023-04-02T05:19:24.933Z,5.91
2023-04-02T05:21:57.579Z,5.88
2023-04-02T05:24:48.791Z,5.84
2023-04-02T05:27:25.254Z,5.87
2023-04-02T05:29:57.075Z,5.84
2023-04-02T05:32:28.331Z,5.77
2023-04-02T05:34:57.338Z,5.75
2023-04-02T05:37:29.195Z,5.73
2023-04-02T05:39:58.383Z,5.74
2023-04-02T05:42:28.781Z,5.66
2023-04-02T05:45:06.779Z,5.64
2023-04-02T05:47:40.619Z,5.61
2023-04-02T05:50:18.927Z,5.65
2023-04-02T05:52:51.722Z,5.61
2023-04-02T05:55:33.517Z,5.68
2023-04-02T05:58:29.364Z,5.66
2023-04-02T06:01:15.492Z,5.64
2023-04-02T06:03:47.873Z,5.62
2023-04-02T06:06:20.632Z,5.49
2023-04-02T06:08:55.744Z,5.62
2023-04-02T06:11:26.603Z,5.63
2023-04-02T06:13:54.425Z,5.60
2023-04-02T06:16:24.795Z,5.58
2023-04-02T06:18:52.554Z,5.65
2023-04-02T06:21:22.129Z,5.64
2023-04-02T06:23:55.228Z,5.68
2023-04-02T06:26:26.424Z,5.67
2023-04-02T06:28:58.849Z,5.67
2023-04-02T06:31:29.689Z,5.68
2023-04-02T06:33:57.711Z,5.70
2023-04-02T06:36:26.626Z,5.72
2023-04-02T06:38:58.774Z,5.68
2023-04-02T06:41:26.632Z,5.68
2023-04-02T06:43:56.723Z,5.65
2023-04-02T06:46:29.672Z,5.65
2023-04-02T06:49:02.412Z,5.68
2023-04-02T06:51:31.783Z,5.66
2023-04-02T06:54:00.995Z,5.68
2023-04-02T06:56:41.698Z,5.72
2023-04-02T06:59:09.832Z,5.77
2023-04-02T07:01:41.152Z,5.71
2023-04-02T07:04:10.160Z,5.70
2023-04-02T07:06:37.890Z,5.74
2023-04-02T07:09:08.066Z,5.76
2023-04-02T07:11:36.103Z,5.77
2023-04-02T07:14:04.151Z,5.80
2023-04-02T07:16:33.597Z,5.84
2023-04-02T07:19:03.006Z,5.91
2023-04-02T07:21:31.075Z,5.97
2023-04-02T07:23:59.144Z,6.05
2023-04-02T07:26:28.978Z,6.07
2023-04-02T07:28:57.547Z,6.03
2023-04-02T07:31:27.051Z,6.04
2023-04-02T07:33:58.010Z,6.05
2023-04-02T07:36:25.837Z,6.01
2023-04-02T07:38:53.946Z,5.94
2023-04-02T07:41:22.082Z,5.91
2023-04-02T07:43:51.379Z,5.91
2023-04-02T07:46:20.289Z,5.89
2023-04-02T07:48:48.605Z,5.90
2023-04-02T07:51:18.529Z,5.90
2023-04-02T07:53:50.216Z,5.92
2023-04-02T07:56:20.051Z,5.92
2023-04-02T07:58:48.277Z,5.87
2023-04-02T08:01:19.964Z,5.90
2023-04-02T08:03:48.519Z,5.92
2023-04-02T08:06:16.731Z,5.93
2023-04-02T08:08:44.877Z,5.95
2023-04-02T08:11:12.751Z,5.99
2023-04-02T08:13:40.687Z,6.08
2023-04-02T08:16:09.021Z,6.05
2023-04-02T08:18:38.342Z,6.11
2023-04-02T08:21:07.765Z,6.12
2023-04-02T08:23:35.878Z,6.15
2023-04-02T08:26:03.627Z,6.15
2023-04-02T08:28:31.522Z,6.24
2023-04-02T08:30:59.338Z,6.24
2023-04-02T08:33:27.215Z,6.29
2023-04-02T08:35:56.370Z,6.28
2023-04-02T08:38:24.187Z,6.25
2023-04-02T08:40:53.883Z,6.24
2023-04-02T08:43:50.622Z,6.29
2023-04-02T08:46:22.848Z,6.38
2023-04-02T08:48:55.290Z,6.52
2023-04-02T08:51:26.471Z,6.62
2023-04-02T08:53:56.916Z,6.70
2023-04-02T08:56:29.964Z,6.80
2023-04-02T08:58:59.468Z,6.83
2023-04-02T09:01:37.684Z,6.92
2023-04-02T09:04:11.145Z,6.92
2023-04-02T09:06:40.266Z,6.90
2023-04-02T09:09:09.743Z,6.93
2023-04-02T09:11:42.920Z,7.04
2023-04-02T09:14:17.312Z,7.07
2023-04-02T09:16:46.479Z,7.05
2023-04-02T09:19:17.733Z,7.09
2023-04-02T09:21:53.723Z,7.14
2023-04-02T09:24:21.522Z,7.22
2023-04-02T09:26:49.382Z,7.29
2023-04-02T09:29:42.826Z,7.37
2023-04-02T09:32:27.943Z,7.40
2023-04-02T09:35:24.628Z,7.45
2023-04-02T09:38:19.000Z,7.35
2023-04-02T09:40:50.636Z,7.29
2023-04-02T09:43:19.982Z,7.32
2023-04-02T09:45:57.776Z,7.45
2023-04-02T09:48:27.544Z,7.60
2023-04-02T09:51:05.990Z,7.68
2023-04-02T09:53:37.383Z,7.79
2023-04-02T09:56:13.873Z,7.90
2023-04-02T09:58:42.321Z,8.05
2023-04-02T10:01:30.020Z,8.17
2023-04-02T10:03:59.265Z,8.24
2023-04-02T10:06:29.069Z,8.31
2023-04-02T10:08:58.754Z,8.41
2023-04-02T10:11:43.747Z,8.50
2023-04-02T10:14:20.365Z,8.63
2023-04-02T10:16:52.103Z,8.69
2023-04-02T10:19:26.496Z,8.60
2023-04-02T10:21:55.721Z,8.59
2023-04-02T10:24:29.569Z,8.59
2023-04-02T10:27:09.850Z,8.54
2023-04-02T10:29:52.583Z,8.56
2023-04-02T10:32:22.968Z,8.61
2023-04-02T10:34:55.379Z,8.69
2023-04-02T10:37:52.724Z,8.74
2023-04-02T10:40:28.414Z,8.74
2023-04-02T10:44:18.934Z,8.81
2023-04-02T10:46:55.083Z,8.77
2023-04-02T10:49:29.128Z,8.84
2023-04-02T10:52:00.830Z,8.91
2023-04-02T10:54:42.651Z,8.89
2023-04-02T10:57:17.807Z,8.88
2023-04-02T10:59:52.464Z,9.06
2023-04-02T11:02:31.738Z,9.21
2023-04-02T11:05:02.905Z,9.36
2023-04-02T11:07:44.681Z,9.39
2023-04-02T11:10:15.322Z,9.47
2023-04-02T11:12:47.079Z,9.54
2023-04-02T11:15:19.813Z,9.52
2023-04-02T11:17:48.069Z,9.59
2023-04-02T11:20:44.891Z,9.56
2023-04-02T11:23:13.963Z,9.31
2023-04-02T11:25:42.744Z,9.42
2023-04-02T11:28:15.565Z,9.53
2023-04-02T11:30:44.730Z,9.67
2023-04-02T11:33:44.707Z,9.80
2023-04-02T11:36:50.971Z,9.79
2023-04-02T11:39:53.489Z,9.76
2023-04-02T11:42:30.423Z,9.68
2023-04-02T11:45:01.331Z,9.73
2023-04-02T11:47:31.036Z,9.66
2023-04-02T11:50:04.154Z,9.60
2023-04-02T11:52:34.603Z,9.66
2023-04-02T11:55:06.096Z,9.79
2023-04-02T11:57:57.221Z,9.82
2023-04-02T12:00:34.178Z,9.94
2023-04-02T12:03:25.663Z,10.13
2023-04-02T12:05:58.555Z,10.24
2023-04-02T12:08:47.286Z,10.24
2023-04-02T12:11:19.088Z,10.32
2023-04-02T12:13:54.384Z,10.36
2023-04-02T12:16:24.230Z,10.44
2023-04-02T12:18:54.927Z,10.51
2023-04-02T12:21:24.359Z,10.56
2023-04-02T12:23:54.069Z,10.69
2023-04-02T12:26:32.148Z,10.78
2023-04-02T12:29:26.284Z,11.01
2023-04-02T12:31:55.510Z,11.10
2023-04-02T12:34:26.207Z,11.11
2023-04-02T12:36:55.858Z,11.04
2023-04-02T12:39:25.226Z,11.11
2023-04-02T12:41:55.354Z,11.07
2023-04-02T12:44:24.007Z,11.06
2023-04-02T12:46:52.390Z,11.17
2023-04-02T12:49:26.745Z,11.28
2023-04-02T12:51:55.926Z,11.16
2023-04-02T12:54:23.835Z,11.01
2023-04-02T12:56:51.953Z,10.82
2023-04-02T12:59:29.794Z,10.83
2023-04-02T13:01:59.231Z,10.90
2023-04-02T13:04:28.955Z,10.91
2023-04-02T13:06:57.504Z,10.90
2023-04-02T13:09:31.939Z,11.02
2023-04-02T13:12:00.452Z,11.19
2023-04-02T13:14:28.281Z,11.24
2023-04-02T13:16:56.469Z,11.18
2023-04-02T13:19:30.947Z,11.02
2023-04-02T13:22:00.120Z,11.14
2023-04-02T13:24:29.648Z,11.23
2023-04-02T13:26:58.962Z,11.31
2023-04-02T13:29:29.486Z,11.37
2023-04-02T13:31:59.124Z,11.53
2023-04-02T13:34:27.031Z,11.62
2023-04-02T13:36:57.391Z,11.77
2023-04-02T13:39:25.381Z,11.79
2023-04-02T13:41:54.767Z,11.90
2023-04-02T13:44:24.501Z,11.94
2023-04-02T13:46:52.918Z,11.91
2023-04-02T13:49:20.700Z,12.02
2023-04-02T13:51:50.540Z,12.08
2023-04-02T13:54:23.299Z,12.03
2023-04-02T13:56:51.711Z,11.96
2023-04-02T13:59:19.550Z,11.85
2023-04-02T14:01:48.570Z,11.76
2023-04-02T14:04:20.322Z,11.68
2023-04-02T14:07:11.975Z,11.77
2023-04-02T14:09:53.709Z,11.89
2023-04-02T14:12:29.855Z,11.88
2023-04-02T14:15:15.760Z,11.98
2023-04-02T14:17:53.299Z,12.00
2023-04-02T14:20:27.084Z,12.14
2023-04-02T14:23:05.937Z,12.13
2023-04-02T14:25:39.730Z,12.16
2023-04-02T14:28:12.380Z,12.09
2023-04-02T14:30:48.740Z,12.17
2023-04-02T14:33:24.651Z,12.24
2023-04-02T14:35:56.387Z,12.25
2023-04-02T14:38:29.826Z,12.39
2023-04-02T14:41:01.212Z,12.44
2023-04-02T14:43:32.401Z,12.53
2023-04-02T14:46:01.634Z,12.59
2023-04-02T14:48:37.997Z,12.64
2023-04-02T14:51:08.877Z,12.61
2023-04-02T14:53:49.473Z,12.58
2023-04-02T14:56:20.172Z,12.63
2023-04-02T14:58:51.755Z,12.65
2023-04-02T15:01:21.740Z,12.68
2023-04-02T15:03:53.183Z,12.65
2023-04-02T15:06:24.608Z,12.63
2023-04-02T15:09:08.348Z,12.57
2023-04-02T15:11:40.627Z,12.52
2023-04-02T15:14:14.033Z,12.37
2023-04-02T15:16:42.016Z,12.34
2023-04-02T15:19:13.422Z,12.32
2023-04-02T15:22:09.301Z,12.34
2023-04-02T15:24:44.109Z,12.29
2023-04-02T15:27:25.523Z,12.36
2023-04-02T15:29:58.629Z,12.49
2023-04-02T15:33:35.925Z,12.45
2023-04-02T15:36:18.743Z,12.56
2023-04-02T15:38:49.243Z,12.57
2023-04-02T15:41:23.602Z,12.57
2023-04-02T15:43:57.744Z,12.55
2023-04-02T15:46:28.316Z,12.56
2023-04-02T15:49:08.539Z,12.58
2023-04-02T15:52:01.378Z,12.59
2023-04-02T15:54:43.827Z,12.62
2023-04-02T15:58:20.855Z,12.70
2023-04-02T16:00:54.896Z,12.63
2023-04-02T16:03:35.009Z,12.56
2023-04-02T16:06:16.993Z,12.46
2023-04-02T16:08:57.360Z,12.33
2023-04-02T16:11:27.361Z,12.27
2023-04-02T16:14:02.347Z,12.20
2023-04-02T16:16:33.421Z,12.13
2023-04-02T16:19:04.554Z,12.10
2023-04-02T16:21:34.218Z,11.97
2023-04-02T16:24:01.885Z,11.94
2023-04-02T16:26:47.735Z,11.87
2023-04-02T16:29:35.607Z,11.82
2023-04-02T16:32:19.665Z,11.80
2023-04-02T16:34:52.470Z,11.80
2023-04-02T16:37:26.116Z,11.80
2023-04-02T16:39:58.246Z,11.77
2023-04-02T16:42:35.492Z,11.73
2023-04-02T16:45:17.397Z,11.65
2023-04-02T16:47:55.025Z,11.76
2023-04-02T16:50:31.970Z,11.55
2023-04-02T16:53:06.136Z,11.64
2023-04-02T16:55:44.396Z,11.62
2023-04-02T16:58:25.211Z,11.65
2023-04-02T17:00:57.455Z,11.62
2023-04-02T17:03:42.001Z,11.60
2023-04-02T17:06:11.002Z,11.66
2023-04-02T17:08:43.591Z,11.69
2023-04-02T17:11:29.367Z,11.67
2023-04-02T17:14:05.860Z,11.74
2023-04-02T17:16:38.111Z,11.78
2023-04-02T17:19:10.734Z,11.91
2023-04-02T17:21:41.319Z,11.92
2023-04-02T17:24:18.581Z,11.96
2023-04-02T17:26:48.371Z,11.86
2023-04-02T17:29:20.194Z,11.80
2023-04-02T17:31:50.845Z,11.73
2023-04-02T17:34:20.749Z,11.69
2023-04-02T17:36:55.594Z,11.59
2023-04-02T17:39:25.602Z,11.52
2023-04-02T17:41:57.398Z,11.46
2023-04-02T17:44:36.190Z,11.42
2023-04-02T17:47:10.551Z,11.35
2023-04-02T17:49:46.989Z,11.28
2023-04-02T17:52:18.076Z,11.14
2023-04-02T17:54:51.582Z,11.20
2023-04-02T17:57:33.473Z,11.13
2023-04-02T18:00:11.437Z,11.12
2023-04-02T18:02:55.203Z,11.03
2023-04-02T18:05:27.008Z,11.02
2023-04-02T18:08:00.642Z,11.01
2023-04-02T18:10:31.037Z,10.98
2023-04-02T18:13:00.918Z,10.96
2023-04-02T18:15:40.058Z,10.94
2023-04-02T18:18:16.572Z,10.89
2023-04-02T18:20:48.074Z,10.89
2023-04-02T18:23:30.153Z,10.91
2023-04-02T18:26:03.556Z,10.89
2023-04-02T18:28:47.285Z,10.81
2023-04-02T18:31:19.378Z,10.80
2023-04-02T18:34:09.260Z,10.78
2023-04-02T18:36:42.124Z,10.72
2023-04-02T18:39:15.516Z,10.64
2023-04-02T18:41:47.585Z,10.64
2023-04-02T18:44:30.734Z,10.58
2023-04-02T18:47:02.373Z,10.57
2023-04-02T18:49:36.912Z,10.55
2023-04-02T18:52:10.893Z,10.56
2023-04-02T18:54:41.258Z,10.53
2023-04-02T18:57:12.579Z,10.48
2023-04-02T18:59:42.799Z,10.46
2023-04-02T19:02:36.089Z,10.43
2023-04-02T19:05:07.244Z,10.41
2023-04-02T19:07:37.771Z,10.38
2023-04-02T19:10:25.886Z,10.36
2023-04-02T19:12:53.627Z,10.34
2023-04-02T19:15:22.890Z,10.28
2023-04-02T19:20:45.435Z,10.23
2023-04-02T19:23:24.610Z,10.18
2023-04-02T19:26:01.784Z,10.18
2023-04-02T19:28:32.431Z,10.12
2023-04-02T19:31:10.626Z,10.12
2023-04-02T19:33:43.823Z,10.12
2023-04-02T19:36:27.557Z,10.06
2023-04-02T19:39:05.102Z,10.05
2023-04-02T19:41:35.987Z,10.03
2023-04-02T19:44:04.011Z,10.03
2023-04-02T19:46:31.821Z,10.05
2023-04-02T19:49:03.734Z,10.06
2023-04-02T19:51:33.532Z,10.06
2023-04-02T19:54:01.514Z,10.06
2023-04-02T19:56:29.727Z,10.03
2023-04-02T19:58:58.297Z,10.02
2023-04-02T20:01:27.849Z,10.00
2023-04-02T20:03:55.650Z,9.96
2023-04-02T20:06:23.899Z,9.86
2023-04-02T20:08:53.059Z,9.91
2023-04-02T20:11:20.960Z,9.92
2023-04-02T20:13:50.119Z,9.88
2023-04-02T20:16:18.051Z,9.84
2023-04-02T20:18:45.762Z,9.79
2023-04-02T20:21:13.590Z,9.79
2023-04-02T20:23:41.423Z,9.73
2023-04-02T20:26:10.512Z,9.72
2023-04-02T20:28:38.374Z,9.70
2023-04-02T20:31:08.391Z,9.70
2023-04-02T20:33:36.730Z,9.67
2023-04-02T20:36:06.791Z,9.69
2023-04-02T20:38:35.923Z,9.69
2023-04-02T20:41:04.776Z,9.67
2023-04-02T20:43:34.904Z,9.67
2023-04-02T20:46:05.597Z,9.62
2023-04-02T20:48:33.732Z,9.61
2023-04-02T20:51:03.035Z,9.54
2023-04-02T20:53:31.596Z,9.55
2023-04-02T20:56:03.862Z,9.52
2023-04-02T20:58:33.140Z,9.46
2023-04-02T21:01:11.844Z,9.43
2023-04-02T21:03:40.586Z,9.40
2023-04-02T21:06:08.854Z,9.37
2023-04-02T21:08:37.034Z,9.34
2023-04-02T21:11:06.321Z,9.33
2023-04-02T21:13:36.791Z,9.31
2023-04-02T21:16:05.138Z,9.24
2023-04-02T21:18:33.262Z,9.15
2023-04-02T21:21:02.506Z,9.14
2023-04-02T21:23:30.216Z,9.13
2023-04-02T21:25:59.353Z,9.08
2023-04-02T21:28:27.401Z,9.07
2023-04-02T21:31:04.820Z,9.03
2023-04-02T21:33:34.134Z,8.99
2023-04-02T21:36:06.933Z,8.96
2023-04-02T21:38:34.683Z,8.94
2023-04-02T21:41:13.167Z,8.95
2023-04-02T21:43:40.988Z,8.91
2023-04-02T21:46:10.343Z,8.87
2023-04-02T21:48:40.619Z,8.84
2023-04-02T21:51:09.961Z,8.81
2023-04-02T21:53:38.941Z,8.78
2023-04-02T21:56:08.505Z,8.74
2023-04-02T21:58:36.529Z,8.71
2023-04-02T22:01:07.142Z,8.69
2023-04-02T22:03:38.985Z,8.69
2023-04-02T22:06:08.647Z,8.66
2023-04-02T22:08:36.786Z,8.63
2023-04-02T22:11:09.264Z,8.62
2023-04-02T22:13:37.373Z,8.56
2023-04-02T22:16:07.972Z,8.53
2023-04-02T22:18:35.836Z,8.52
2023-04-02T22:21:05.080Z,8.46
2023-04-02T22:23:33.130Z,8.43
2023-04-02T22:26:01.656Z,8.40
2023-04-02T22:28:30.141Z,8.38
2023-04-02T22:31:05.522Z,8.35
2023-04-02T22:33:33.550Z,8.31
2023-04-02T22:36:02.037Z,8.28
2023-04-02T22:38:31.723Z,8.21
2023-04-02T22:41:07.448Z,8.10
2023-04-02T22:43:35.479Z,8.15
2023-04-02T22:46:03.546Z,8.14
2023-04-02T22:48:31.290Z,8.10
2023-04-02T22:50:59.367Z,8.06
2023-04-02T22:53:27.432Z,8.04
2023-04-02T22:55:56.617Z,8.01
2023-04-02T22:58:26.622Z,7.96
2023-04-02T23:00:54.279Z,7.96
2023-04-02T23:03:22.131Z,7.95
2023-04-02T23:05:59.547Z,7.95
2023-04-02T23:08:27.277Z,7.90
2023-04-02T23:11:02.890Z,7.83
2023-04-02T23:13:31.101Z,7.78
2023-04-02T23:15:59.080Z,7.81
2023-04-02T23:18:26.867Z,7.77
2023-04-02T23:20:55.339Z,7.78
2023-04-02T23:23:23.208Z,7.74
2023-04-02T23:25:51.018Z,7.74
2023-04-02T23:28:20.204Z,7.72
2023-04-02T23:30:47.930Z,7.70
2023-04-02T23:33:15.612Z,7.73
2023-04-02T23:35:43.308Z,7.74
2023-04-02T23:38:11.226Z,7.71
2023-04-02T23:40:38.928Z,7.71
2023-04-02T23:43:06.611Z,7.70
2023-04-02T23:45:35.668Z,7.68
2023-04-02T23:48:03.386Z,7.66
2023-04-02T23:50:31.042Z,7.65
2023-04-02T23:52:58.840Z,7.65
2023-04-02T23:55:26.562Z,7.65
2023-04-02T23:57:54.206Z,7.63
